createdAt,value
2023-04-25T00:00:41.501Z,67.86
2023-04-25T00:03:10.153Z,68.62
2023-04-25T00:05:38.224Z,68.99
2023-04-25T00:08:06.168Z,69.24
2023-04-25T00:10:33.762Z,67.71
2023-04-25T00:13:03.440Z,67.61
2023-04-25T00:15:33.636Z,68.82
2023-04-25T00:18:01.290Z,68.80
2023-04-25T00:20:28.782Z,68.43
2023-04-25T00:22:56.114Z,68.67
2023-04-25T00:25:24.465Z,67.21
2023-04-25T00:27:51.815Z,67.12
2023-04-25T00:30:19.253Z,67.40
2023-04-25T00:32:47.097Z,68.04
2023-04-25T00:35:14.926Z,66.74
2023-04-25T00:37:42.321Z,69.13
2023-04-25T00:40:10.410Z,69.41
2023-04-25T00:42:38.370Z,69.54
2023-04-25T00:45:07.412Z,70.93
2023-04-25T00:47:35.503Z,70.52
2023-04-25T00:50:02.870Z,69.62
2023-04-25T00:52:30.252Z,69.54
2023-04-25T00:54:57.900Z,70.70
2023-04-25T00:57:25.786Z,69.28
2023-04-25T00:59:53.519Z,68.83
2023-04-25T01:02:21.794Z,69.97
2023-04-25T01:04:49.332Z,69.11
2023-04-25T01:07:17.191Z,70.71
2023-04-25T01:09:44.869Z,72.67
2023-04-25T01:12:12.229Z,70.90
2023-04-25T01:14:39.574Z,69.96
2023-04-25T01:17:08.722Z,69.95
2023-04-25T01:19:36.654Z,70.00
2023-04-25T01:22:04.756Z,69.80
2023-04-25T01:24:33.208Z,69.20
2023-04-25T01:27:01.494Z,68.64
2023-04-25T01:29:28.916Z,67.65
2023-04-25T01:31:56.605Z,66.89
2023-04-25T01:34:24.007Z,66.70
2023-04-25T01:36:51.644Z,66.72
2023-04-25T01:39:19.478Z,67.08
2023-04-25T01:41:47.508Z,65.93
2023-04-25T01:44:15.049Z,66.70
2023-04-25T01:46:42.708Z,65.38
2023-04-25T01:49:10.084Z,64.90
2023-04-25T01:51:37.681Z,66.34
2023-04-25T01:54:05.367Z,64.14
2023-04-25T01:56:33.328Z,65.49
2023-04-25T01:59:00.977Z,66.22
2023-04-25T02:01:29.862Z,65.61
2023-04-25T02:03:58.676Z,65.30
2023-04-25T02:06:26.497Z,65.60
2023-04-25T02:08:54.275Z,65.20
2023-04-25T02:11:21.918Z,67.09
2023-04-25T02:13:49.982Z,65.11
2023-04-25T02:16:18.037Z,65.44
2023-04-25T02:18:45.975Z,66.40
2023-04-25T02:21:13.391Z,65.26
2023-04-25T02:23:40.772Z,66.26
2023-04-25T02:26:08.392Z,64.98
2023-04-25T02:28:36.854Z,63.68
2023-04-25T02:31:05.878Z,63.50
2023-04-25T02:33:33.247Z,65.04
2023-04-25T02:36:00.624Z,64.20
2023-04-25T02:38:28.261Z,63.89
2023-04-25T02:40:57.687Z,65.07
2023-04-25T02:43:27.074Z,64.19
2023-04-25T02:45:54.724Z,63.67
2023-04-25T02:48:22.095Z,63.76
2023-04-25T02:50:49.750Z,63.65
2023-04-25T02:53:17.345Z,65.67
2023-04-25T02:55:45.001Z,64.28
2023-04-25T02:58:12.358Z,63.67
2023-04-25T03:00:41.018Z,63.86
2023-04-25T03:03:08.469Z,63.62
2023-04-25T03:05:35.898Z,65.17
2023-04-25T03:08:03.923Z,64.47
2023-04-25T03:10:31.608Z,65.15
2023-04-25T03:12:59.737Z,65.26
2023-04-25T03:15:27.618Z,64.28
2023-04-25T03:17:55.042Z,62.75
2023-04-25T03:20:22.485Z,63.98
2023-04-25T03:22:50.285Z,66.35
2023-04-25T03:25:19.170Z,65.64
2023-04-25T03:27:46.954Z,65.39
2023-04-25T03:30:14.785Z,66.75
2023-04-25T03:32:42.592Z,65.59
2023-04-25T03:35:10.012Z,65.67
2023-04-25T03:37:37.649Z,65.33
2023-04-25T03:40:05.511Z,65.54
2023-04-25T03:42:34.528Z,66.15
2023-04-25T03:45:02.685Z,67.28
2023-04-25T03:47:30.834Z,67.18
2023-04-25T03:49:58.737Z,68.73
2023-04-25T03:52:26.554Z,68.93
2023-04-25T03:54:54.552Z,69.29
2023-04-25T03:57:22.219Z,67.50
2023-04-25T03:59:49.887Z,67.18
2023-04-25T04:02:18.793Z,66.95
2023-04-25T04:04:46.905Z,66.68
2023-04-25T04:07:14.800Z,66.47
2023-04-25T04:09:42.422Z,66.46
2023-04-25T04:12:11.541Z,66.07
2023-04-25T04:14:39.231Z,68.59
2023-04-25T04:17:07.043Z,68.21
2023-04-25T04:19:34.879Z,67.80
2023-04-25T04:22:03.024Z,68.14
2023-04-25T04:24:30.398Z,68.89
2023-04-25T04:26:58.411Z,68.65
2023-04-25T04:29:26.440Z,69.50
2023-04-25T04:31:54.675Z,70.84
2023-04-25T04:34:22.398Z,70.61
2023-04-25T04:36:49.791Z,70.85
2023-04-25T04:39:17.167Z,71.80
2023-04-25T04:41:45.026Z,72.81
2023-04-25T04:44:13.394Z,73.38
2023-04-25T04:46:42.072Z,74.94
2023-04-25T04:49:10.831Z,75.71
2023-04-25T04:51:38.852Z,75.86
2023-04-25T04:54:06.301Z,75.65
2023-04-25T04:56:34.293Z,75.95
2023-04-25T04:59:02.863Z,78.42
2023-04-25T05:01:31.272Z,78.59
2023-04-25T05:04:02.496Z,80.61
2023-04-25T05:06:32.465Z,79.33
2023-04-25T05:09:02.564Z,79.02
2023-04-25T05:11:31.213Z,79.30
2023-04-25T05:13:58.636Z,80.98
2023-04-25T05:16:26.979Z,80.40
2023-04-25T05:18:54.429Z,81.45
2023-04-25T05:21:22.449Z,83.07
2023-04-25T05:23:50.742Z,83.64
2023-04-25T05:26:18.636Z,82.55
2023-04-25T05:28:46.140Z,82.58
2023-04-25T05:31:13.934Z,82.17
2023-04-25T05:33:41.798Z,81.67
2023-04-25T05:36:09.510Z,83.67
2023-04-25T05:38:37.369Z,82.71
2023-04-25T05:41:06.007Z,82.70
2023-04-25T05:43:33.610Z,83.33
2023-04-25T05:46:01.337Z,83.00
2023-04-25T05:48:28.728Z,83.42
2023-04-25T05:50:56.500Z,83.69
2023-04-25T05:53:24.476Z,82.81
2023-04-25T05:55:52.083Z,83.01
2023-04-25T05:58:19.788Z,82.43
2023-04-25T06:00:47.529Z,81.60
2023-04-25T06:03:20.426Z,81.34
2023-04-25T06:05:48.856Z,81.60
2023-04-25T06:08:16.480Z,81.38
2023-04-25T06:10:44.140Z,80.75
2023-04-25T06:13:11.556Z,79.69
2023-04-25T06:15:39.208Z,79.92
2023-04-25T06:18:06.749Z,79.81
2023-04-25T06:20:35.128Z,79.75
2023-04-25T06:23:02.816Z,78.61
2023-04-25T06:25:30.806Z,77.65
2023-04-25T06:27:58.169Z,77.60
2023-04-25T06:30:26.782Z,77.07
2023-04-25T06:32:54.870Z,75.71
2023-04-25T06:35:22.548Z,74.50
2023-04-25T06:37:50.409Z,73.67
2023-04-25T06:40:22.335Z,72.68
2023-04-25T06:42:50.081Z,72.40
2023-04-25T06:45:21.262Z,71.46
2023-04-25T06:47:48.696Z,72.61
2023-04-25T06:50:16.431Z,71.38
2023-04-25T06:52:43.970Z,72.35
2023-04-25T06:55:11.539Z,71.84
2023-04-25T06:57:40.256Z,70.37
2023-04-25T07:00:10.664Z,68.80
2023-04-25T07:02:38.343Z,67.54
2023-04-25T07:05:06.711Z,66.51
2023-04-25T07:07:34.334Z,62.93
2023-04-25T07:10:01.805Z,64.23
2023-04-25T07:12:29.469Z,64.02
2023-04-25T07:14:56.842Z,61.87
2023-04-25T07:17:24.404Z,62.33
2023-04-25T07:19:53.030Z,63.67
2023-04-25T07:22:20.467Z,62.30
2023-04-25T07:24:49.730Z,61.43
2023-04-25T07:27:19.278Z,60.22
2023-04-25T07:29:47.401Z,61.69
2023-04-25T07:32:15.222Z,61.41
2023-04-25T07:34:44.006Z,60.65
2023-04-25T07:37:11.406Z,57.83
2023-04-25T07:39:39.571Z,57.80
2023-04-25T07:42:09.129Z,54.77
2023-04-25T07:44:39.769Z,56.61
2023-04-25T07:47:08.300Z,58.64
2023-04-25T07:49:38.692Z,59.22
2023-04-25T07:52:08.876Z,59.28
2023-04-25T07:54:36.837Z,58.55
2023-04-25T07:57:04.633Z,59.36
2023-04-25T07:59:32.170Z,58.56
2023-04-25T08:02:00.874Z,60.00
2023-04-25T08:04:28.815Z,60.40
2023-04-25T08:06:56.568Z,59.19
2023-04-25T08:09:24.078Z,60.87
2023-04-25T08:11:52.489Z,61.50
2023-04-25T08:14:20.804Z,61.32
2023-04-25T08:16:49.244Z,60.06
2023-04-25T08:19:17.021Z,60.21
2023-04-25T08:21:45.762Z,57.54
2023-04-25T08:24:14.236Z,58.22
2023-04-25T08:26:42.298Z,59.34
2023-04-25T08:29:10.665Z,60.54
2023-04-25T08:31:38.949Z,59.68
2023-04-25T08:34:07.092Z,59.21
2023-04-25T08:36:39.211Z,58.76
2023-04-25T08:39:14.466Z,58.74
2023-04-25T08:41:43.286Z,61.12
2023-04-25T08:44:11.871Z,60.60
2023-04-25T08:46:42.051Z,61.40
2023-04-25T08:49:10.584Z,60.70
2023-04-25T08:51:45.059Z,60.51
2023-04-25T08:54:28.033Z,60.75
2023-04-25T08:57:02.985Z,61.91
2023-04-25T08:59:31.052Z,59.95
2023-04-25T09:01:59.071Z,61.30
2023-04-25T09:04:27.071Z,60.86
2023-04-25T09:06:55.967Z,61.57
2023-04-25T09:09:24.834Z,59.09
2023-04-25T09:11:52.486Z,59.67
2023-04-25T09:14:26.718Z,59.04
2023-04-25T09:16:57.134Z,57.50
2023-04-25T09:19:40.489Z,58.72
2023-04-25T09:22:09.948Z,59.50
2023-04-25T09:24:45.173Z,57.44
2023-04-25T09:27:20.269Z,56.91
2023-04-25T09:29:48.644Z,58.74
2023-04-25T09:32:21.597Z,57.37
2023-04-25T09:34:51.714Z,55.93
2023-04-25T09:37:30.067Z,57.16
2023-04-25T09:40:06.923Z,57.32
2023-04-25T09:42:35.743Z,56.03
2023-04-25T09:45:03.541Z,56.52
2023-04-25T09:47:33.023Z,55.31
2023-04-25T09:50:01.205Z,55.76
2023-04-25T09:52:28.694Z,53.42
2023-04-25T09:54:56.515Z,52.84
2023-04-25T09:57:24.967Z,55.09
2023-04-25T09:59:53.737Z,52.62
2023-04-25T10:02:26.208Z,55.39
2023-04-25T10:04:56.286Z,54.98
2023-04-25T10:07:31.108Z,53.15
2023-04-25T10:10:01.232Z,53.90
2023-04-25T10:12:28.866Z,54.86
2023-04-25T10:14:56.301Z,54.63
2023-04-25T10:17:23.941Z,53.80
2023-04-25T10:19:52.237Z,53.79
2023-04-25T10:22:42.633Z,51.88
2023-04-25T10:25:10.284Z,50.18
2023-04-25T10:27:38.121Z,49.50
2023-04-25T10:30:12.158Z,50.37
2023-04-25T10:32:39.816Z,48.33
2023-04-25T10:35:13.475Z,48.12
2023-04-25T10:38:00.115Z,48.14
2023-04-25T10:40:27.711Z,47.72
2023-04-25T10:42:56.273Z,49.05
2023-04-25T10:45:23.700Z,48.64
2023-04-25T10:47:51.072Z,48.63
2023-04-25T10:50:18.809Z,47.88
2023-04-25T10:52:46.160Z,48.59
2023-04-25T10:55:13.515Z,48.50
2023-04-25T10:57:41.980Z,47.02
2023-04-25T11:00:19.598Z,47.03
2023-04-25T11:02:53.211Z,46.02
2023-04-25T11:05:30.211Z,45.91
2023-04-25T11:10:32.787Z,45.99
2023-04-25T11:13:01.065Z,46.00
2023-04-25T11:15:28.726Z,45.62
2023-04-25T11:17:56.218Z,47.16
2023-04-25T11:20:26.832Z,44.04
2023-04-25T11:22:54.219Z,41.53
2023-04-25T11:25:22.007Z,42.42
2023-04-25T11:27:57.112Z,42.27
2023-04-25T11:30:25.218Z,42.49
2023-04-25T11:32:53.207Z,42.08
2023-04-25T11:35:21.871Z,41.55
2023-04-25T11:37:49.338Z,43.29
2023-04-25T11:40:17.067Z,42.98
2023-04-25T11:42:45.420Z,41.85
2023-04-25T11:45:13.037Z,42.25
2023-04-25T11:47:40.697Z,43.82
2023-04-25T11:50:08.879Z,43.04
2023-04-25T11:52:45.377Z,43.02
2023-04-25T11:55:17.433Z,43.09
2023-04-25T11:57:53.717Z,43.63
2023-04-25T12:00:21.769Z,43.82
2023-04-25T12:02:53.043Z,44.49
2023-04-25T12:05:32.241Z,45.10
2023-04-25T12:08:11.832Z,45.84
2023-04-25T12:10:44.038Z,44.03
2023-04-25T12:13:24.730Z,42.99
2023-04-25T12:15:52.359Z,42.77
2023-04-25T12:18:21.869Z,42.57
2023-04-25T12:20:49.227Z,41.33
2023-04-25T12:23:16.578Z,42.70
2023-04-25T12:25:45.655Z,42.21
2023-04-25T12:28:20.725Z,42.26
2023-04-25T12:31:05.214Z,40.90
2023-04-25T12:33:37.071Z,42.05
2023-04-25T12:36:09.613Z,42.93
2023-04-25T12:38:41.101Z,42.05
2023-04-25T12:41:09.374Z,42.99
2023-04-25T12:43:37.301Z,44.79
2023-04-25T12:46:04.795Z,43.69
2023-04-25T12:48:32.547Z,42.50
2023-04-25T12:50:59.893Z,41.65
2023-04-25T12:53:27.361Z,41.89
2023-04-25T12:58:24.650Z,43.13
2023-04-25T13:00:52.122Z,42.30
2023-04-25T13:03:19.929Z,41.76
2023-04-25T13:05:47.407Z,41.43
2023-04-25T13:08:14.820Z,39.85
2023-04-25T13:10:42.976Z,39.61
2023-04-25T13:13:10.473Z,41.15
2023-04-25T13:15:37.828Z,40.66
2023-04-25T13:18:06.933Z,41.10
2023-04-25T13:20:34.532Z,40.53
2023-04-25T13:23:02.974Z,41.43
2023-04-25T13:25:30.849Z,40.14
2023-04-25T13:27:58.246Z,41.48
2023-04-25T13:30:25.674Z,41.83
2023-04-25T13:32:53.745Z,40.80
2023-04-25T13:35:21.237Z,41.90
2023-04-25T13:37:48.598Z,40.42
2023-04-25T13:40:16.218Z,41.64
2023-04-25T13:42:45.578Z,40.76
2023-04-25T13:45:12.964Z,39.59
2023-04-25T13:47:40.665Z,39.29
2023-04-25T13:50:08.904Z,41.09
2023-04-25T13:52:36.454Z,39.68
2023-04-25T13:55:04.749Z,41.38
2023-04-25T13:57:32.592Z,39.23
2023-04-25T14:00:00.445Z,39.17
2023-04-25T14:02:28.226Z,40.68
2023-04-25T14:04:56.113Z,40.30
2023-04-25T14:07:23.547Z,40.51
2023-04-25T14:09:50.908Z,40.59
2023-04-25T14:12:18.741Z,40.29
2023-04-25T14:14:46.334Z,40.48
2023-04-25T14:17:17.534Z,40.13
2023-04-25T14:19:46.656Z,40.16
2023-04-25T14:22:14.024Z,40.37
2023-04-25T14:24:41.369Z,41.13
2023-04-25T14:27:09.229Z,42.07
2023-04-25T14:29:36.632Z,40.80
2023-04-25T14:32:04.753Z,40.24
2023-04-25T14:34:32.353Z,40.19
2023-04-25T14:36:59.769Z,40.40
2023-04-25T14:39:27.165Z,39.50
2023-04-25T14:41:54.772Z,40.96
2023-04-25T14:44:22.186Z,41.61
2023-04-25T14:46:52.553Z,40.94
2023-04-25T14:49:20.344Z,40.77
2023-04-25T14:51:48.754Z,40.71
2023-04-25T14:54:17.886Z,40.84
2023-04-25T14:56:45.533Z,40.86
2023-04-25T14:59:12.887Z,41.24
2023-04-25T15:01:40.233Z,40.27
2023-04-25T15:04:08.132Z,40.43
2023-04-25T15:06:35.614Z,41.16
2023-04-25T15:09:02.969Z,40.94
2023-04-25T15:11:30.849Z,40.85
2023-04-25T15:13:58.188Z,41.96
2023-04-25T15:16:25.550Z,41.13
2023-04-25T15:18:53.200Z,41.31
2023-04-25T15:21:20.847Z,41.00
2023-04-25T15:23:48.371Z,41.08
2023-04-25T15:26:16.555Z,41.78
2023-04-25T15:28:43.931Z,40.81
2023-04-25T15:31:11.357Z,40.02
2023-04-25T15:33:38.998Z,41.02
2023-04-25T15:36:06.793Z,40.60
2023-04-25T15:38:34.171Z,39.68
2023-04-25T15:41:02.609Z,40.57
2023-04-25T15:43:31.019Z,40.36
2023-04-25T15:45:58.506Z,47.37
2023-04-25T15:48:26.420Z,46.56
2023-04-25T15:50:53.765Z,46.17
2023-04-25T15:53:21.286Z,47.16
2023-04-25T15:55:48.934Z,46.23
2023-04-25T15:58:16.467Z,45.63
2023-04-25T16:00:43.917Z,46.44
2023-04-25T16:03:11.663Z,47.09
2023-04-25T16:05:39.452Z,48.54
2023-04-25T16:08:06.841Z,46.96
2023-04-25T16:10:34.494Z,45.77
2023-04-25T16:13:01.846Z,46.68
2023-04-25T16:15:29.194Z,46.68
2023-04-25T16:17:56.942Z,45.39
2023-04-25T16:20:24.286Z,46.32
2023-04-25T16:22:51.712Z,46.18
2023-04-25T16:25:21.721Z,48.02
2023-04-25T16:27:49.093Z,47.36
2023-04-25T16:30:16.662Z,46.95
2023-04-25T16:32:45.564Z,47.00
2023-04-25T16:35:13.185Z,47.43
2023-04-25T16:37:40.624Z,46.15
2023-04-25T16:40:09.882Z,46.38
2023-04-25T16:42:37.376Z,48.09
2023-04-25T16:45:05.203Z,47.47
2023-04-25T16:47:33.115Z,46.88
2023-04-25T16:50:01.156Z,47.94
2023-04-25T16:52:28.535Z,47.37
2023-04-25T16:54:56.455Z,48.69
2023-04-25T16:57:23.818Z,48.75
2023-04-25T16:59:52.069Z,49.60
2023-04-25T17:02:19.803Z,48.87
2023-04-25T17:04:47.590Z,48.01
2023-04-25T17:07:15.942Z,48.03
2023-04-25T17:09:43.719Z,49.87
2023-04-25T17:12:11.069Z,49.22
2023-04-25T17:14:39.064Z,48.57
2023-04-25T17:17:07.047Z,48.54
2023-04-25T17:19:34.540Z,50.10
2023-04-25T17:22:01.895Z,49.38
2023-04-25T17:24:29.479Z,48.43
2023-04-25T17:26:57.189Z,48.20
2023-04-25T17:29:24.597Z,48.87
2023-04-25T17:31:53.528Z,50.39
2023-04-25T17:34:21.488Z,51.04
2023-04-25T17:36:48.881Z,51.07
2023-04-25T17:39:17.504Z,50.36
2023-04-25T17:41:45.066Z,51.34
2023-04-25T17:44:12.449Z,49.78
2023-04-25T17:46:40.166Z,49.45
2023-04-25T17:49:07.710Z,51.05
2023-04-25T17:51:35.074Z,50.03
2023-04-25T17:54:02.977Z,50.82
2023-04-25T17:56:31.217Z,49.85
2023-04-25T17:58:59.112Z,50.72
2023-04-25T18:01:26.976Z,50.88
2023-04-25T18:03:54.833Z,52.48
2023-04-25T18:06:22.380Z,52.80
2023-04-25T18:08:50.057Z,53.98
2023-04-25T18:11:17.834Z,55.11
2023-04-25T18:13:45.192Z,54.13
2023-04-25T18:16:12.569Z,55.33
2023-04-25T18:18:43.177Z,56.54
2023-04-25T18:21:10.628Z,57.91
2023-04-25T18:23:38.604Z,57.36
2023-04-25T18:26:06.480Z,56.15
2023-04-25T18:28:34.419Z,58.79
2023-04-25T18:31:01.848Z,59.87
2023-04-25T18:33:29.569Z,59.79
2023-04-25T18:35:59.796Z,60.49
2023-04-25T18:41:10.508Z,58.29
2023-04-25T18:43:45.627Z,58.21
2023-04-25T18:46:13.337Z,58.35
2023-04-25T18:48:40.752Z,59.80
2023-04-25T18:51:08.252Z,60.94
2023-04-25T18:53:35.901Z,60.50
2023-04-25T18:56:03.276Z,60.31
2023-04-25T18:58:30.684Z,59.72
2023-04-25T19:00:58.323Z,59.35
2023-04-25T19:03:26.419Z,59.07
2023-04-25T19:05:53.967Z,57.53
2023-04-25T19:08:21.704Z,58.13
2023-04-25T19:10:49.780Z,57.33
2023-04-25T19:13:17.158Z,56.84
2023-04-25T19:15:44.772Z,59.68
2023-04-25T19:18:12.186Z,57.56
2023-04-25T19:20:39.739Z,58.24
2023-04-25T19:23:07.404Z,58.91
2023-04-25T19:25:34.863Z,58.27
2023-04-25T19:28:02.441Z,60.21
2023-04-25T19:30:30.060Z,60.20
2023-04-25T19:32:58.081Z,61.15
2023-04-25T19:35:30.619Z,60.33
2023-04-25T19:37:58.626Z,59.31
2023-04-25T19:40:26.136Z,59.53
2023-04-25T19:42:53.526Z,61.40
2023-04-25T19:45:21.571Z,61.70
2023-04-25T19:47:49.194Z,58.83
2023-04-25T19:50:16.700Z,58.04
2023-04-25T19:52:44.463Z,59.86
2023-04-25T19:55:11.871Z,59.49
2023-04-25T19:57:39.278Z,58.22
2023-04-25T20:00:10.604Z,58.45
2023-04-25T20:02:39.567Z,59.42
2023-04-25T20:05:08.137Z,59.46
2023-04-25T20:07:35.655Z,60.86
2023-04-25T20:10:04.073Z,61.23
2023-04-25T20:12:31.651Z,60.70
2023-04-25T20:14:58.984Z,61.33
2023-04-25T20:17:26.486Z,60.16
2023-04-25T20:19:54.121Z,60.91
2023-04-25T20:22:21.491Z,60.68
2023-04-25T20:24:48.849Z,60.05
2023-04-25T20:27:16.460Z,61.13
2023-04-25T20:29:44.653Z,61.14
2023-04-25T20:32:12.298Z,59.39
2023-04-25T20:34:40.015Z,60.82
2023-04-25T20:37:08.891Z,60.75
2023-04-25T20:39:36.375Z,60.21
2023-04-25T20:42:04.073Z,58.94
2023-04-25T20:44:32.013Z,60.89
2023-04-25T20:46:59.502Z,62.81
2023-04-25T20:49:27.306Z,62.36
2023-04-25T20:51:54.686Z,61.89
2023-04-25T20:54:22.161Z,62.88
2023-04-25T20:56:51.024Z,62.25
2023-04-25T20:59:18.450Z,61.76
2023-04-25T21:01:46.143Z,62.22
2023-04-25T21:04:14.001Z,63.80
2023-04-25T21:06:41.821Z,63.29
2023-04-25T21:09:09.745Z,63.08
2023-04-25T21:11:38.433Z,63.83
2023-04-25T21:14:05.794Z,61.83
2023-04-25T21:16:35.336Z,64.03
2023-04-25T21:19:03.044Z,62.91
2023-04-25T21:21:32.215Z,63.82
2023-04-25T21:23:59.603Z,62.10
2023-04-25T21:26:27.523Z,61.63
2023-04-25T21:28:54.995Z,61.57
2023-04-25T21:31:22.549Z,63.97
2023-04-25T21:33:50.311Z,64.93
2023-04-25T21:36:17.645Z,62.73
2023-04-25T21:38:45.014Z,61.60
2023-04-25T21:41:12.690Z,63.96
2023-04-25T21:43:40.052Z,63.41
2023-04-25T21:46:22.059Z,62.64
2023-04-25T21:48:51.635Z,62.62
2023-04-25T21:51:19.537Z,61.79
2023-04-25T21:53:46.908Z,61.19
2023-04-25T21:56:14.537Z,62.67
2023-04-25T21:58:42.130Z,61.88
2023-04-25T22:01:09.981Z,62.86
2023-04-25T22:03:37.737Z,63.22
2023-04-25T22:06:05.265Z,62.41
2023-04-25T22:08:32.615Z,60.78
2023-04-25T22:11:02.699Z,62.39
2023-04-25T22:13:30.599Z,60.18
2023-04-25T22:15:59.218Z,60.37
2023-04-25T22:18:26.919Z,59.55
2023-04-25T22:20:54.594Z,59.83
2023-04-25T22:23:22.681Z,58.90
2023-04-25T22:25:50.302Z,62.35
2023-04-25T22:28:17.689Z,62.78
2023-04-25T22:30:45.071Z,63.77
2023-04-25T22:33:12.982Z,63.31
2023-04-25T22:35:40.368Z,65.15
2023-04-25T22:38:07.705Z,65.46
2023-04-25T22:40:35.488Z,66.33
2023-04-25T22:43:03.062Z,66.18
2023-04-25T22:45:30.496Z,66.09
2023-04-25T22:47:58.602Z,65.25
2023-04-25T22:50:27.053Z,65.10
2023-04-25T22:52:55.071Z,66.31
2023-04-25T22:55:22.847Z,67.56
2023-04-25T22:57:50.222Z,67.97
2023-04-25T23:00:20.282Z,67.54
2023-04-25T23:02:48.576Z,67.85
2023-04-25T23:05:16.155Z,67.78
2023-04-25T23:07:44.984Z,67.81
2023-04-25T23:10:14.077Z,68.43
2023-04-25T23:12:41.528Z,66.57
2023-04-25T23:15:10.016Z,67.37
2023-04-25T23:17:38.209Z,66.98
2023-04-25T23:20:07.564Z,67.66
2023-04-25T23:22:35.205Z,67.62
2023-04-25T23:25:02.841Z,65.74
2023-04-25T23:27:31.514Z,66.19
2023-04-25T23:29:58.904Z,64.63
2023-04-25T23:32:26.852Z,63.84
2023-04-25T23:34:54.236Z,66.34
2023-04-25T23:37:21.646Z,65.64
2023-04-25T23:39:50.640Z,67.97
2023-04-25T23:42:18.439Z,64.63
2023-04-25T23:44:45.890Z,65.41
2023-04-25T23:47:14.327Z,64.21
2023-04-25T23:49:41.885Z,63.81
2023-04-25T23:52:09.789Z,63.96
2023-04-25T23:54:37.675Z,65.20
2023-04-25T23:57:05.119Z,64.59
2023-04-25T23:59:32.538Z,66.97
